Terminal Aerodrome Forecast
Issued by NWS Greer, SC

Home | Current Version | Previous Version | Text Only | Print | Product List | Glossary On
Versions: 1 2 3 4 5 6 7 8 9 10 11 12
156
FTUS42 KGSP 282320
TAFGSP
TAF
KGSP 282320Z 2900/2924 15005KT P6SM FEW070 SCT250
     FM290600 20003KT P6SM SCT045
     FM292100 17009KT P6SM SCT060=

USA.gov is the U.S. government's official web portal to all federal, state and local government web resources and services.